createdAt,value
2019-02-23T00:00:46.721Z,78.03
2019-02-23T00:03:16.390Z,75.70
2019-02-23T00:05:46.167Z,78.97
2019-02-23T00:08:15.846Z,78.60
2019-02-23T00:10:45.516Z,77.07
2019-02-23T00:13:15.193Z,74.90
2019-02-23T00:15:44.963Z,80.23
2019-02-23T00:18:16.387Z,81.00
2019-02-23T00:20:46.050Z,80.47
2019-02-23T00:23:15.767Z,78.43
2019-02-23T00:25:45.432Z,76.80
2019-02-23T00:28:15.445Z,81.47
2019-02-23T00:30:45.485Z,76.93
2019-02-23T00:33:15.289Z,76.93
2019-02-23T00:35:44.966Z,83.13
2019-02-23T00:38:14.821Z,73.80
2019-02-23T00:40:44.574Z,73.60
2019-02-23T00:43:15.103Z,80.93
2019-02-23T00:45:44.787Z,78.57
2019-02-23T00:48:14.482Z,77.73
2019-02-23T00:50:44.144Z,84.70
2019-02-23T00:53:13.936Z,75.90
2019-02-23T00:55:43.592Z,77.67
2019-02-23T00:58:13.275Z,81.00
2019-02-23T01:00:42.980Z,78.23
2019-02-23T01:03:12.729Z,78.47
2019-02-23T01:05:43.983Z,81.00
2019-02-23T01:08:14.906Z,80.97
2019-02-23T01:10:44.647Z,74.90
2019-02-23T01:13:15.416Z,78.13
2019-02-23T01:15:45.138Z,78.00
2019-02-23T01:18:14.830Z,78.30
2019-02-23T01:20:44.476Z,81.33
2019-02-23T01:23:14.281Z,79.73
2019-02-23T01:25:43.952Z,80.63
2019-02-23T01:28:13.696Z,76.10
2019-02-23T01:30:43.402Z,75.37
2019-02-23T01:33:13.074Z,78.57
2019-02-23T01:35:42.758Z,77.27
2019-02-23T01:38:12.534Z,73.30
2019-02-23T01:40:42.205Z,77.03
2019-02-23T01:43:11.876Z,73.80
2019-02-23T01:45:42.618Z,77.50
2019-02-23T01:48:12.485Z,73.40
2019-02-23T01:50:42.170Z,77.30
2019-02-23T01:53:11.920Z,76.20
2019-02-23T01:55:41.587Z,75.30
2019-02-23T01:58:11.261Z,74.83
2019-02-23T02:00:41.844Z,75.37
2019-02-23T02:03:11.520Z,75.37
2019-02-23T02:05:41.343Z,74.10
2019-02-23T02:08:11.046Z,74.97
2019-02-23T02:10:40.799Z,74.97
2019-02-23T02:13:10.479Z,75.73
2019-02-23T02:15:40.852Z,73.13
2019-02-23T02:18:10.508Z,78.63
2019-02-23T02:20:40.401Z,73.87
2019-02-23T02:23:10.097Z,77.17
2019-02-23T02:25:39.766Z,72.40
2019-02-23T02:28:09.446Z,71.70
2019-02-23T02:30:39.130Z,75.80
2019-02-23T02:33:08.808Z,73.27
2019-02-23T02:35:38.566Z,71.73
2019-02-23T02:38:08.336Z,67.17
2019-02-23T02:40:38.007Z,71.83
2019-02-23T02:43:07.694Z,73.63
2019-02-23T02:45:37.517Z,68.23
2019-02-23T02:48:08.660Z,66.70
2019-02-23T02:50:38.397Z,69.17
2019-02-23T02:53:08.085Z,72.63
2019-02-23T02:55:37.827Z,67.20
2019-02-23T02:58:07.481Z,65.87
2019-02-23T03:00:37.184Z,70.83
2019-02-23T03:03:06.854Z,69.63
2019-02-23T03:05:36.524Z,68.87
2019-02-23T03:08:06.226Z,64.87
2019-02-23T03:10:35.967Z,66.67
2019-02-23T03:13:05.629Z,66.50
2019-02-23T03:15:35.402Z,66.77
2019-02-23T03:18:05.061Z,65.73
2019-02-23T03:20:36.895Z,67.43
2019-02-23T03:23:06.146Z,68.47
2019-02-23T03:25:35.964Z,67.87
2019-02-23T03:28:24.932Z,66.97
2019-02-23T03:30:54.913Z,65.77
2019-02-23T03:33:24.561Z,68.43
2019-02-23T03:35:57.118Z,64.87
2019-02-23T03:38:27.788Z,73.60
2019-02-23T03:40:59.621Z,68.03
2019-02-23T03:43:29.310Z,66.33
2019-02-23T03:45:58.987Z,67.57
2019-02-23T03:48:28.844Z,68.37
2019-02-23T03:50:58.602Z,65.60
2019-02-23T03:53:28.284Z,70.00
2019-02-23T03:55:57.957Z,62.30
2019-02-23T03:58:27.649Z,69.30
2019-02-23T04:00:57.327Z,71.90
2019-02-23T04:03:27.044Z,68.17
2019-02-23T04:05:56.694Z,71.67
2019-02-23T04:08:26.386Z,69.23
2019-02-23T04:10:56.058Z,67.77
2019-02-23T04:13:25.745Z,66.87
2019-02-23T04:15:55.418Z,71.63
2019-02-23T04:18:25.081Z,71.17
2019-02-23T04:21:01.680Z,72.07
2019-02-23T04:23:26.240Z,72.23
2019-02-23T04:25:55.915Z,69.30
2019-02-23T04:28:25.589Z,70.27
2019-02-23T04:30:55.394Z,72.70
2019-02-23T04:33:25.083Z,71.73
2019-02-23T04:35:54.763Z,70.57
2019-02-23T04:38:26.187Z,71.17
2019-02-23T04:40:55.851Z,67.40
2019-02-23T04:43:25.533Z,67.70
2019-02-23T04:45:55.201Z,74.00
2019-02-23T04:48:24.865Z,69.93
2019-02-23T04:50:54.639Z,72.17
2019-02-23T04:53:24.565Z,72.40
2019-02-23T04:55:54.235Z,74.53
2019-02-23T04:58:23.928Z,80.90
2019-02-23T05:00:53.602Z,79.60
2019-02-23T05:03:23.382Z,76.33
2019-02-23T05:05:53.068Z,72.13
2019-02-23T05:08:22.724Z,72.97
2019-02-23T05:10:52.399Z,75.80
2019-02-23T05:13:22.128Z,76.80
2019-02-23T05:15:51.942Z,78.67
2019-02-23T05:18:21.622Z,83.97
2019-02-23T05:20:51.485Z,79.37
2019-02-23T05:23:21.178Z,73.60
2019-02-23T05:26:12.900Z,79.93
2019-02-23T05:28:46.987Z,79.27
2019-02-23T05:31:16.658Z,75.23
2019-02-23T05:33:46.436Z,78.37
2019-02-23T05:36:16.132Z,74.67
2019-02-23T05:38:45.805Z,76.23
2019-02-23T05:41:16.101Z,78.37
2019-02-23T05:43:47.412Z,80.23
2019-02-23T05:46:17.090Z,81.77
2019-02-23T05:48:46.780Z,84.40
2019-02-23T05:51:18.768Z,81.13
2019-02-23T05:53:48.506Z,81.97
2019-02-23T05:56:18.261Z,85.50
2019-02-23T05:58:48.015Z,85.73
2019-02-23T06:01:18.375Z,81.10
2019-02-23T06:03:48.071Z,84.63
2019-02-23T06:06:21.028Z,83.63
2019-02-23T06:08:50.693Z,87.70
2019-02-23T06:11:20.389Z,85.63
2019-02-23T06:13:50.071Z,81.77
2019-02-23T06:16:19.749Z,82.60
2019-02-23T06:18:49.554Z,87.97
2019-02-23T06:21:19.298Z,85.53
2019-02-23T06:23:48.982Z,86.00
2019-02-23T06:26:18.693Z,86.33
2019-02-23T06:28:48.851Z,86.83
2019-02-23T06:31:18.596Z,83.40
2019-02-23T06:33:48.317Z,85.83
2019-02-23T06:36:18.001Z,84.97
2019-02-23T06:38:47.927Z,87.90
2019-02-23T06:41:17.632Z,87.83
2019-02-23T06:43:47.371Z,86.80
2019-02-23T06:46:17.053Z,84.13
2019-02-23T06:48:48.239Z,90.07
2019-02-23T06:51:18.212Z,86.07
2019-02-23T06:53:47.887Z,84.93
2019-02-23T06:56:17.593Z,88.77
2019-02-23T06:58:48.893Z,84.43
2019-02-23T07:01:18.555Z,83.97
2019-02-23T07:03:48.272Z,89.90
2019-02-23T07:06:17.923Z,86.17
2019-02-23T07:08:47.590Z,89.13
2019-02-23T07:11:18.996Z,89.00
2019-02-23T07:13:48.847Z,88.83
2019-02-23T07:16:18.549Z,91.37
2019-02-23T07:18:48.337Z,92.93
2019-02-23T07:21:17.999Z,90.30
2019-02-23T07:23:47.668Z,91.67
2019-02-23T07:26:17.366Z,91.37
2019-02-23T07:28:50.509Z,89.00
2019-02-23T07:31:22.260Z,91.93
2019-02-23T07:33:51.954Z,92.33
2019-02-23T07:36:21.625Z,89.40
2019-02-23T07:38:51.343Z,96.17
2019-02-23T07:41:21.105Z,91.67
2019-02-23T07:43:50.790Z,88.87
2019-02-23T07:46:20.485Z,91.37
2019-02-23T07:48:50.139Z,92.13
2019-02-23T07:51:20.035Z,85.60
2019-02-23T07:53:49.730Z,89.30
2019-02-23T07:56:21.236Z,87.57
2019-02-23T07:58:50.916Z,88.40
2019-02-23T08:01:20.677Z,88.87
2019-02-23T08:03:50.379Z,90.10
2019-02-23T08:06:20.068Z,93.33
2019-02-23T08:08:49.765Z,85.50
2019-02-23T08:11:20.023Z,88.10
2019-02-23T08:13:49.718Z,88.67
2019-02-23T08:16:19.400Z,88.70
2019-02-23T08:18:49.144Z,87.97
2019-02-23T08:21:18.822Z,85.67
2019-02-23T08:23:48.502Z,88.37
2019-02-23T08:26:18.184Z,88.10
2019-02-23T08:28:47.935Z,84.60
2019-02-23T08:31:18.720Z,88.70
2019-02-23T08:33:48.450Z,88.97
2019-02-23T08:36:18.216Z,90.03
2019-02-23T08:38:47.904Z,83.63
2019-02-23T08:41:17.572Z,93.10
2019-02-23T08:43:47.238Z,98.07
2019-02-23T08:46:16.934Z,89.50
2019-02-23T08:48:46.609Z,87.43
2019-02-23T08:51:16.278Z,85.20
2019-02-23T08:53:46.223Z,88.83
2019-02-23T08:56:15.914Z,86.97
2019-02-23T08:58:45.590Z,87.90
2019-02-23T09:01:16.760Z,87.93
2019-02-23T09:03:46.436Z,87.83
2019-02-23T09:06:16.110Z,87.03
2019-02-23T09:08:45.817Z,83.87
2019-02-23T09:11:15.513Z,81.60
2019-02-23T09:13:45.277Z,82.80
2019-02-23T09:16:14.989Z,81.70
2019-02-23T09:18:44.675Z,80.90
2019-02-23T09:21:16.133Z,81.57
2019-02-23T09:23:46.210Z,84.50
2019-02-23T09:26:15.871Z,82.43
2019-02-23T09:28:45.572Z,82.60
2019-02-23T09:31:15.632Z,79.23
2019-02-23T09:33:45.315Z,85.10
2019-02-23T09:36:15.023Z,84.20
2019-02-23T09:38:45.189Z,81.10
2019-02-23T09:41:14.866Z,80.30
2019-02-23T09:43:44.604Z,78.63
2019-02-23T09:46:14.276Z,75.20
2019-02-23T09:48:43.964Z,78.50
2019-02-23T09:51:13.653Z,81.30
2019-02-23T09:53:43.316Z,76.67
2019-02-23T09:56:13.000Z,78.30
2019-02-23T09:58:42.916Z,80.20
2019-02-23T10:01:12.585Z,79.17
2019-02-23T10:03:42.327Z,76.90
2019-02-23T10:06:12.085Z,78.30
2019-02-23T10:08:41.778Z,78.30
2019-02-23T10:11:12.925Z,80.13
2019-02-23T10:13:42.632Z,80.87
2019-02-23T10:16:12.290Z,79.80
2019-02-23T10:18:41.995Z,79.03
2019-02-23T10:21:30.943Z,78.80
2019-02-23T10:24:00.609Z,80.87
2019-02-23T10:26:30.406Z,80.20
2019-02-23T10:29:00.113Z,80.13
2019-02-23T10:31:32.017Z,80.80
2019-02-23T10:34:01.706Z,79.07
2019-02-23T10:36:31.422Z,81.97
2019-02-23T10:39:02.629Z,79.40
2019-02-23T10:41:32.321Z,82.50
2019-02-23T10:44:02.029Z,79.43
2019-02-23T10:46:31.695Z,83.37
2019-02-23T10:49:01.363Z,81.03
2019-02-23T10:51:31.068Z,83.83
2019-02-23T10:54:00.735Z,83.33
2019-02-23T10:56:30.417Z,84.23
2019-02-23T10:59:00.121Z,85.37
2019-02-23T11:01:29.791Z,83.43
2019-02-23T11:04:01.006Z,85.70
2019-02-23T11:06:30.743Z,83.03
2019-02-23T11:09:00.573Z,83.83
2019-02-23T11:11:30.639Z,83.13
2019-02-23T11:14:00.388Z,85.60
2019-02-23T11:16:30.855Z,84.50
2019-02-23T11:19:00.545Z,85.33
2019-02-23T11:21:30.267Z,84.57
2019-02-23T11:23:59.924Z,81.70
2019-02-23T11:26:32.351Z,80.30
2019-02-23T11:29:02.062Z,81.20
2019-02-23T11:31:31.829Z,78.90
2019-02-23T11:34:01.505Z,77.57
2019-02-23T11:36:31.202Z,79.83
2019-02-23T11:39:00.894Z,77.67
2019-02-23T11:41:30.575Z,82.50
2019-02-23T11:44:00.277Z,84.83
2019-02-23T11:46:30.037Z,87.57
2019-02-23T11:48:59.703Z,84.17
2019-02-23T11:51:31.526Z,81.63
2019-02-23T11:54:02.341Z,83.53
2019-02-23T11:56:32.032Z,79.37
2019-02-23T11:59:01.723Z,85.00
2019-02-23T12:01:31.410Z,79.93
2019-02-23T12:04:02.698Z,84.43
2019-02-23T12:06:32.407Z,81.03
2019-02-23T12:09:02.168Z,80.73
2019-02-23T12:11:31.900Z,83.50
2019-02-23T12:14:01.599Z,81.53
2019-02-23T12:16:31.288Z,85.57
2019-02-23T12:19:01.037Z,81.43
2019-02-23T12:21:30.813Z,80.20
2019-02-23T12:24:06.084Z,79.57
2019-02-23T12:26:31.893Z,82.50
2019-02-23T12:29:01.587Z,83.13
2019-02-23T12:31:31.259Z,80.50
2019-02-23T12:34:00.929Z,82.03
2019-02-23T12:36:30.634Z,87.13
2019-02-23T12:39:00.294Z,79.83
2019-02-23T12:41:29.988Z,82.27
2019-02-23T12:43:59.679Z,80.70
2019-02-23T12:46:29.434Z,84.87
2019-02-23T12:48:59.173Z,80.73
2019-02-23T12:51:29.024Z,80.80
2019-02-23T12:54:01.471Z,78.27
2019-02-23T12:56:31.131Z,84.20
2019-02-23T12:59:00.849Z,84.53
2019-02-23T13:01:30.558Z,82.10
2019-02-23T13:04:00.255Z,84.03
2019-02-23T13:06:29.961Z,81.47
2019-02-23T13:09:21.608Z,85.43
2019-02-23T13:12:06.217Z,80.73
2019-02-23T13:14:55.267Z,83.43
2019-02-23T13:17:29.332Z,83.00
2019-02-23T13:20:21.442Z,87.47
2019-02-23T13:23:16.666Z,83.93
2019-02-23T13:26:02.802Z,83.70
2019-02-23T13:29:28.424Z,86.90
2019-02-23T13:32:14.419Z,85.37
2019-02-23T13:35:23.070Z,87.60
2019-02-23T13:41:07.937Z,91.37
2019-02-23T13:44:21.425Z,89.73
2019-02-23T13:47:00.799Z,90.93
2019-02-23T13:50:00.654Z,93.57
2019-02-23T13:53:02.608Z,88.87
2019-02-23T13:56:18.494Z,92.97
2019-02-23T13:59:04.447Z,93.93
2019-02-23T14:02:06.949Z,90.77
2019-02-23T14:05:01.495Z,88.33
2019-02-23T14:08:11.877Z,91.80
2019-02-23T14:11:02.057Z,86.73
2019-02-23T14:13:44.733Z,90.77
2019-02-23T14:16:30.414Z,88.53
2019-02-23T14:19:48.676Z,87.87
2019-02-23T14:23:08.849Z,90.03
2019-02-23T14:26:09.985Z,91.00
2019-02-23T14:29:14.127Z,89.23
2019-02-23T14:32:05.178Z,91.00
2019-02-23T14:34:58.193Z,88.23
2019-02-23T14:37:43.856Z,89.00
2019-02-23T14:40:56.745Z,90.57
2019-02-23T14:44:17.504Z,87.83
2019-02-23T14:47:24.949Z,93.07
2019-02-23T14:50:30.905Z,88.53
2019-02-23T14:53:22.528Z,87.73
2019-02-23T14:56:31.201Z,88.43
2019-02-23T14:59:21.829Z,87.03
2019-02-23T15:01:58.779Z,85.80
2019-02-23T15:05:07.245Z,87.77
2019-02-23T15:08:03.488Z,84.80
2019-02-23T15:10:52.979Z,89.90
2019-02-23T15:13:32.752Z,84.57
2019-02-23T15:16:39.669Z,83.43
2019-02-23T15:19:45.185Z,82.53
2019-02-23T15:23:01.065Z,84.17
2019-02-23T15:25:48.775Z,86.87
2019-02-23T15:28:38.207Z,91.03
2019-02-23T15:31:36.123Z,86.70
2019-02-23T15:34:34.121Z,89.37
2019-02-23T15:37:19.925Z,88.00
2019-02-23T15:40:28.826Z,88.60
2019-02-23T15:43:23.529Z,91.13
2019-02-23T15:46:09.457Z,90.00
2019-02-23T15:49:16.473Z,89.43
2019-02-23T15:51:46.165Z,88.97
2019-02-23T15:54:15.836Z,90.43
2019-02-23T15:56:46.622Z,91.37
2019-02-23T15:59:17.923Z,87.30
2019-02-23T16:01:47.720Z,92.70
2019-02-23T16:04:17.483Z,91.07
2019-02-23T16:06:47.168Z,90.77
2019-02-23T16:09:17.331Z,86.63
2019-02-23T16:11:47.013Z,91.83
2019-02-23T16:14:16.709Z,90.97
2019-02-23T16:16:47.434Z,93.20
2019-02-23T16:19:17.731Z,89.23
2019-02-23T16:21:47.451Z,93.73
2019-02-23T16:24:17.138Z,93.03
2019-02-23T16:26:46.819Z,92.20
2019-02-23T16:29:16.507Z,88.80
2019-02-23T16:31:46.251Z,89.87
2019-02-23T16:34:17.291Z,91.53
2019-02-23T16:36:47.051Z,91.67
2019-02-23T16:39:16.753Z,95.83
2019-02-23T16:41:46.532Z,89.87
2019-02-23T16:44:16.370Z,90.00
2019-02-23T16:46:46.547Z,89.77
2019-02-23T16:49:16.326Z,90.10
2019-02-23T16:51:46.051Z,88.00
2019-02-23T16:54:15.982Z,87.33
2019-02-23T16:56:47.311Z,89.37
2019-02-23T16:59:17.090Z,92.77
2019-02-23T17:01:46.759Z,89.23
2019-02-23T17:04:16.435Z,88.73
2019-02-23T17:06:46.246Z,86.67
2019-02-23T17:09:15.918Z,86.80
2019-02-23T17:11:45.867Z,90.03
2019-02-23T17:14:15.639Z,83.43
2019-02-23T17:16:45.307Z,87.13
2019-02-23T17:19:14.976Z,86.07
2019-02-23T17:21:44.787Z,87.77
2019-02-23T17:24:14.521Z,86.77
2019-02-23T17:26:44.486Z,86.67
2019-02-23T17:29:14.202Z,86.30
2019-02-23T17:31:44.380Z,91.57
2019-02-23T17:34:14.113Z,85.27
2019-02-23T17:36:44.509Z,90.73
2019-02-23T17:39:14.299Z,92.00
2019-02-23T17:41:44.191Z,89.40
2019-02-23T17:44:13.881Z,84.83
2019-02-23T17:46:43.555Z,88.03
2019-02-23T17:49:14.454Z,89.13
2019-02-23T17:51:44.050Z,85.73
2019-02-23T17:54:14.032Z,85.80
2019-02-23T17:56:43.777Z,87.13
2019-02-23T17:59:13.500Z,84.30
2019-02-23T18:01:43.247Z,87.17
2019-02-23T18:04:13.413Z,88.40
2019-02-23T18:06:43.236Z,86.23
2019-02-23T18:09:13.296Z,82.57
2019-02-23T18:11:42.983Z,89.63
2019-02-23T18:14:12.999Z,87.90
2019-02-23T18:16:43.344Z,87.93
2019-02-23T18:22:01.709Z,91.40
2019-02-23T18:24:32.474Z,90.70
2019-02-23T18:27:02.781Z,89.27
2019-02-23T18:29:34.653Z,88.13
2019-02-23T18:32:10.643Z,90.60
2019-02-23T18:34:41.830Z,86.73
2019-02-23T18:37:11.898Z,89.63
2019-02-23T18:39:42.581Z,92.53
2019-02-23T18:42:12.341Z,92.40
2019-02-23T18:44:42.122Z,90.33
2019-02-23T18:47:15.505Z,98.03
2019-02-23T18:49:45.214Z,94.87
2019-02-23T18:52:14.961Z,97.27
2019-02-23T18:54:44.634Z,94.27
2019-02-23T18:57:14.340Z,97.13
2019-02-23T18:59:44.012Z,93.87
2019-02-23T19:02:13.694Z,90.17
2019-02-23T19:04:43.394Z,90.23
2019-02-23T19:07:14.721Z,102.30
2019-02-23T19:09:44.465Z,93.30
2019-02-23T19:12:15.054Z,91.13
2019-02-23T19:14:46.607Z,89.57
2019-02-23T19:17:16.468Z,87.63
2019-02-23T19:19:46.198Z,91.17
2019-02-23T19:22:15.871Z,88.83
2019-02-23T19:24:45.645Z,90.07
2019-02-23T19:27:15.353Z,88.87
2019-02-23T19:29:45.116Z,122.97
2019-02-23T19:32:15.002Z,149.87
2019-02-23T19:34:44.731Z,236.00
2019-02-23T19:37:14.431Z,148.53
2019-02-23T19:39:44.117Z,109.03
2019-02-23T19:42:13.926Z,100.30
2019-02-23T19:44:43.697Z,240.73
2019-02-23T19:47:13.367Z,147.70
2019-02-23T19:49:43.151Z,115.07
2019-02-23T19:52:14.496Z,103.73
2019-02-23T19:54:44.285Z,98.80
2019-02-23T19:57:14.311Z,94.00
2019-02-23T19:59:44.197Z,90.60
2019-02-23T20:02:14.001Z,94.57
2019-02-23T20:04:43.807Z,101.77
2019-02-23T20:07:13.507Z,102.20
2019-02-23T20:09:44.758Z,93.67
2019-02-23T20:12:15.978Z,93.57
2019-02-23T20:14:45.675Z,93.07
2019-02-23T20:17:15.374Z,88.40
2019-02-23T20:19:45.062Z,92.87
2019-02-23T20:22:14.774Z,90.00
2019-02-23T20:24:44.448Z,91.03
2019-02-23T20:27:14.139Z,94.80
2019-02-23T20:29:43.887Z,91.77
2019-02-23T20:32:13.560Z,92.53
2019-02-23T20:34:43.265Z,98.33
2019-02-23T20:37:12.953Z,105.33
2019-02-23T20:39:42.641Z,134.87
2019-02-23T20:42:12.361Z,130.67
2019-02-23T20:44:42.035Z,129.80
2019-02-23T20:47:14.012Z,160.37
2019-02-23T20:49:43.734Z,190.03
2019-02-23T20:52:13.421Z,147.03
2019-02-23T20:54:43.878Z,143.77
2019-02-23T20:57:14.311Z,135.30
2019-02-23T20:59:44.068Z,117.63
2019-02-23T21:02:13.811Z,110.00
2019-02-23T21:04:43.601Z,108.97
2019-02-23T21:07:14.942Z,125.03
2019-02-23T21:09:44.996Z,118.93
2019-02-23T21:12:14.759Z,169.53
2019-02-23T21:14:44.509Z,116.50
2019-02-23T21:17:14.173Z,108.53
2019-02-23T21:19:43.921Z,104.20
2019-02-23T21:22:13.628Z,104.87
2019-02-23T21:24:43.291Z,105.30
2019-02-23T21:27:13.363Z,101.27
2019-02-23T21:29:43.071Z,97.50
2019-02-23T21:32:12.746Z,97.70
2019-02-23T21:34:43.879Z,132.90
2019-02-23T21:37:13.642Z,127.23
2019-02-23T21:39:44.566Z,108.30
2019-02-23T21:42:14.278Z,97.90
2019-02-23T21:44:43.964Z,100.13
2019-02-23T21:47:13.629Z,95.90
2019-02-23T21:49:43.346Z,95.30
2019-02-23T21:52:14.539Z,113.57
2019-02-23T21:54:44.532Z,103.63
2019-02-23T21:57:21.957Z,108.00
2019-02-23T21:59:47.429Z,95.53
2019-02-23T22:02:17.112Z,102.43
2019-02-23T22:04:46.819Z,93.83
2019-02-23T22:07:16.922Z,91.90
2019-02-23T22:09:46.591Z,138.63
2019-02-23T22:12:16.297Z,130.10
2019-02-23T22:14:46.573Z,132.20
2019-02-23T22:17:16.308Z,122.70
2019-02-23T22:19:45.994Z,107.87
2019-02-23T22:22:15.687Z,175.00
2019-02-23T22:24:45.367Z,142.93
2019-02-23T22:27:15.061Z,111.43
2019-02-23T22:29:47.485Z,102.83
2019-02-23T22:32:17.148Z,99.57
2019-02-23T22:34:46.852Z,108.40
2019-02-23T22:37:16.522Z,142.43
2019-02-23T22:39:46.213Z,113.43
2019-02-23T22:42:15.926Z,123.73
2019-02-23T22:44:45.581Z,129.80
2019-02-23T22:47:15.261Z,147.20
2019-02-23T22:49:46.000Z,126.00
2019-02-23T22:52:16.114Z,172.40
2019-02-23T22:54:45.850Z,138.40
2019-02-23T22:57:15.559Z,127.30
2019-02-23T22:59:45.216Z,103.73
2019-02-23T23:02:14.977Z,105.23
2019-02-23T23:04:44.677Z,115.73
2019-02-23T23:07:14.364Z,106.10
2019-02-23T23:09:44.901Z,100.30
2019-02-23T23:12:14.683Z,97.73
2019-02-23T23:14:44.359Z,141.27
2019-02-23T23:17:14.043Z,143.53
2019-02-23T23:19:44.197Z,159.80
2019-02-23T23:22:14.062Z,120.17
2019-02-23T23:24:43.757Z,106.60
2019-02-23T23:27:13.441Z,120.63
2019-02-23T23:29:43.197Z,112.93
2019-02-23T23:32:13.102Z,102.77
2019-02-23T23:34:42.766Z,96.83
2019-02-23T23:37:14.044Z,95.40
2019-02-23T23:39:43.742Z,91.87
2019-02-23T23:42:13.431Z,94.43
2019-02-23T23:44:43.720Z,98.13
2019-02-23T23:47:13.411Z,95.90
2019-02-23T23:49:43.177Z,89.50
2019-02-23T23:52:12.835Z,96.83
2019-02-23T23:54:42.549Z,91.90
2019-02-23T23:57:12.355Z,86.97
2019-02-23T23:59:42.111Z,211.10
